• Join FlightAware (Why Join?)
  • Login
  • US Flag 
01:10PM EST


 

Airport Tracker/Info


-or-


 

Live Flight TrackerFlight Track Log ✈ JBU163 ✈ 06-Jan-2013 ✈ KJFK - KTPA

Flight Track Log - Related Links

Times and Time Zones

All times are in EST time to prevent confusion due to time zone crossing. See the JBU163 flight status page for this flight to view local times or setup timezone preferences in your user account.

Time Position Orientation Groundspeed Altitude Reporting Facility
EST Latitude Longitude Course Direction KTS MPH feet Rate Location/Type
05:31PM 40.6422 -73.8533 270° West 174 200 2,100  Level New York Center
05:31PM 40.6333 -73.8667 229° Southwest 191 220 2,400 2,460 Climbing New York TRACON
05:32PM 40.5833 -73.9167 217° Southwest 252 290 5,300 3,060 Climbing New York TRACON
05:33PM 40.4519 -74.0723 229° Southwest  Level FlightAware Approximate
05:33PM 40.5167 -73.9667 210° Southwest 266 306 8,600  Level New York TRACON
05:34PM 40.3860 -74.1711 229° Southwest  Level FlightAware Approximate
05:34PM 40.4500 -74.0333 217° Southwest 283 326 11,000  Level New York TRACON
05:35PM 40.3229 -74.2730 232° Southwest  Level FlightAware Approximate
05:36PM 40.2595 -74.3739 217° Southwest  Level FlightAware Approximate
05:36PM 40.3750 -74.1764 235° Southwest 328 377 13,400  Level New York Center
05:37PM 40.2000 -74.4720 270° West  Level FlightAware Approximate
05:37PM 40.3222 -74.2719 234° Southwest 307 353 16,800  Level New York Center
05:38PM 40.2800 -74.3542 236° Southwest 292 336 17,400 1,260 Climbing New York Center
05:39PM 40.2403 -74.4281 235° Southwest 287 330 19,400 2,220 Climbing New York Center
05:40PM 40.1994 -74.5347 243° Southwest 287 330 21,900 1,260 Climbing New York Center
05:41PM 40.1900 -74.6347 263° West 281 323 22,000 900 Climbing New York Center
05:42PM 40.1822 -74.7375 264° West 287 330 23,800 1,500 Climbing New York Center
05:43PM 40.1725 -74.8428 263° West 292 336 25,100 840 Climbing New York Center
05:44PM 40.1669 -74.9403 266° West 295 339 25,500 780 Climbing New York Center
05:45PM 40.1586 -75.0567 265° West 313 360 26,700 1,380 Climbing New York Center
05:46PM 40.1500 -75.1756 265° West 333 383 28,300 1,380 Climbing New York Center
05:47PM 40.1375 -75.2889 262° West 333 383 29,500 1,620 Climbing New York Center
05:48PM 40.1061 -75.3981 249° West 327 376 31,600 1,800 Climbing New York Center
05:49PM 40.0569 -75.4842 233° Southwest 309 356 33,200 1,260 Climbing New York Center
05:50PM 39.9994 -75.5644 227° Southwest 304 350 34,200 780 Climbing New York Center
05:51PM 39.9442 -75.6419 227° Southwest 304 350 34,800 660 Climbing New York Center
05:52PM 39.8819 -75.7350 229° Southwest 309 356 35,500 540 Climbing New York Center
05:53PM 39.8283 -75.8203 231° Southwest 314 361 36,000 120 Climbing New York Center
05:55PM 39.7067 -76.0122 231° Southwest 332 382 36,000  Level Washington Center
05:56PM 39.6458 -76.1036 229° Southwest 337 388 36,000  Level Washington Center
05:57PM 39.5892 -76.1975 232° Southwest 337 388 36,000  Level Washington Center
05:58PM 39.5283 -76.2883 229° Southwest 337 388 36,000 -60 Level Washington Center
05:59PM 39.4736 -76.3792 232° Southwest 337 388 35,900 -60 Descending Washington Center
06:00PM 39.4144 -76.4672 229° Southwest 332 382 35,900  Level Washington Center
06:01PM 39.3597 -76.5525 230° Southwest 337 388 36,000  Climbing Washington Center
06:02PM 39.2903 -76.6347 223° Southwest 337 388 36,000  Level Washington Center
06:03PM 39.2228 -76.7169 223° Southwest 337 388 36,000  Level Washington Center
06:04PM 39.1553 -76.7989 223° Southwest 337 388 36,000  Level Washington Center
06:05PM 39.0878 -76.8806 223° Southwest 337 388 36,000  Level Washington Center
06:06PM 39.0203 -76.9622 223° Southwest 337 388 36,000  Level Washington Center
06:07PM 38.9506 -77.0436 222° Southwest 337 388 36,000  Level Washington Center
06:08PM 38.8828 -77.1278 224° Southwest 337 388 36,000  Level Washington Center
06:09PM 38.8169 -77.2061 223° Southwest 337 388 36,000  Level Washington Center
06:10PM 38.7492 -77.2872 223° Southwest 337 388 36,000  Level Washington Center
06:11PM 38.6814 -77.3656 222° Southwest 332 382 36,000  Level Washington Center
06:12PM 38.6178 -77.4411 223° Southwest 322 371 36,000  Level Washington Center
06:13PM 38.5539 -77.5192 224° Southwest 322 371 36,000  Level Washington Center
06:14PM 38.4861 -77.5942 221° Southwest 322 371 36,000  Level Washington Center
06:15PM 38.4242 -77.6694 224° Southwest 322 371 36,000  Level Washington Center
06:16PM 38.3603 -77.7444 223° Southwest 317 365 36,000  Level Washington Center
06:17PM 38.2964 -77.8219 224° Southwest 317 365 36,000  Level Washington Center
06:18PM 38.2303 -77.8992 223° Southwest 317 365 36,100  Climbing Washington Center
06:19PM 38.1642 -77.9764 223° Southwest 317 365 36,000 -60 Descending Washington Center
06:20PM 38.0936 -78.0561 222° Southwest 322 371 36,000  Level Washington Center
06:21PM 38.0294 -78.1356 224° Southwest 322 371 36,000  Level Washington Center
06:22PM 37.9592 -78.2069 219° Southwest 328 377 36,000  Level Washington Center
06:23PM 37.8867 -78.2781 218° Southwest 333 383 36,000  Level Washington Center
06:24PM 37.8142 -78.3467 217° Southwest 333 383 36,000  Level Washington Center
06:25PM 37.7417 -78.4150 217° Southwest 333 383 36,000  Level Washington Center
06:26PM 37.6669 -78.4856 217° Southwest 333 383 36,000  Level Washington Center
06:27PM 37.5881 -78.5611 217° Southwest 333 383 36,000  Level Washington Center
06:28PM 37.5153 -78.6292 217° Southwest 333 383 36,000 60 Level Washington Center
06:29PM 37.4428 -78.6967 216° Southwest 333 383 36,200 300 Climbing Washington Center
06:30PM 37.3678 -78.7669 217° Southwest 333 383 36,600 180 Climbing Washington Center
06:31PM 37.2908 -78.8342 215° Southwest 338 389 36,600 360 Level Washington Center
06:32PM 37.2203 -78.9017 217° Southwest 350 403 37,400 540 Climbing Washington Center
06:33PM 37.1431 -78.9739 217° Southwest 350 403 37,700 240 Climbing Washington Center
06:34PM 37.0617 -79.0483 216° Southwest 350 403 38,000 120 Climbing Washington Center
06:35PM 36.9825 -79.1228 217° Southwest 355 409 38,000  Level Washington Center
06:36PM 36.8986 -79.1994 216° Southwest 362 417 38,000  Level Washington Center
06:37PM 36.8150 -79.2761 216° Southwest 374 430 38,000  Level Washington Center
06:38PM 36.7247 -79.3597 217° Southwest 374 430 38,000  Level Washington Center
06:39PM 36.6431 -79.4336 216° Southwest 374 430 38,000  Level Washington Center
06:40PM 36.5636 -79.5047 216° Southwest 374 430 38,000  Level Washington Center
06:42PM 36.4375 -79.6181 216° Southwest 381 438 38,000  Level Atlanta Center
06:43PM 36.3647 -79.6842 216° Southwest 370 426 38,000  Level Atlanta Center
06:44PM 36.2758 -79.7636 216° Southwest 365 420 38,000  Level Atlanta Center
06:45PM 36.2050 -79.8292 217° Southwest 365 420 38,000  Level Atlanta Center
06:46PM 36.1219 -79.9028 216° Southwest 365 420 38,000  Level Atlanta Center
06:47PM 36.0408 -79.9711 214° Southwest 365 420 38,000  Level Atlanta Center
06:48PM 35.9344 -80.0278 203° Southwest 370 426 38,000  Level Atlanta Center
06:49PM 35.8378 -80.0761 202° Southwest 381 438 38,000  Level Atlanta Center
06:50PM 35.7414 -80.1269 203° Southwest 381 438 38,000  Level Atlanta Center
06:51PM 35.6428 -80.1775 203° Southwest 386 444 38,000  Level Atlanta Center
06:52PM 35.5486 -80.2278 203° Southwest 386 444 38,000  Level Atlanta Center
06:53PM 35.4478 -80.2758 201° Southwest 392 451 38,000  Level Atlanta Center
06:54PM 35.3469 -80.3264 202° Southwest 387 445 38,000  Level Atlanta Center
06:55PM 35.2608 -80.3708 203° Southwest 395 455 38,000  Level Atlanta Center
06:56PM 35.1642 -80.4208 203° Southwest 389 448 38,000  Level Atlanta Center
06:58PM 34.9367 -80.5300 201° Southwest 387 445 38,000  Level Jacksonville Center
06:59PM 34.8292 -80.5836 202° Southwest 387 445 38,000  Level Jacksonville Center
07:00PM 34.7381 -80.6264 201° Southwest 371 427 38,000  Level Jacksonville Center
07:01PM 34.6431 -80.6744 203° Southwest 371 427 38,000  Level Jacksonville Center
07:02PM 34.5458 -80.7222 202° Southwest 389 448 38,000  Level Jacksonville Center
07:03PM 34.4528 -80.7700 203° Southwest 380 437 38,000  Level Jacksonville Center
07:04PM 34.3597 -80.8175 203° Southwest 372 428 38,000  Level Jacksonville Center
07:05PM 34.2789 -80.8519 199° South 372 428 38,000  Level Jacksonville Center
07:06PM 34.1858 -80.8944 201° Southwest 366 421 38,000  Level Jacksonville Center
07:07PM 34.0906 -80.9417 202° Southwest 366 421 38,000  Level Jacksonville Center
07:08PM 33.9931 -80.9889 202° Southwest 371 427 38,000  Level Jacksonville Center
07:09PM 33.8875 -81.0364 200° South 371 427 38,000  Level Jacksonville Center
07:10PM 33.7922 -81.0808 201° Southwest 371 427 38,000 -60 Level Jacksonville Center
07:11PM 33.7050 -81.1225 202° Southwest 366 421 37,900  Descending Jacksonville Center
07:12PM 33.6097 -81.1667 201° Southwest 371 427 38,000  Climbing Jacksonville Center
07:13PM 33.5122 -81.2111 201° Southwest 371 427 38,000  Level Jacksonville Center
07:14PM 33.4167 -81.2553 201° Southwest 371 427 38,000  Level Jacksonville Center
07:15PM 33.3214 -81.3017 202° Southwest 371 427 38,000  Level Jacksonville Center
07:16PM 33.2239 -81.3456 201° Southwest 376 433 38,000  Level Jacksonville Center
07:17PM 33.1261 -81.3894 201° Southwest 376 433 38,000  Level Jacksonville Center
07:18PM 33.0286 -81.4356 202° Southwest 376 433 38,000  Level Jacksonville Center
07:19PM 32.9331 -81.4794 201° Southwest 376 433 38,000 -60 Level Jacksonville Center
07:20PM 32.8375 -81.5228 201° Southwest 376 433 37,900  Descending Jacksonville Center
07:21PM 32.7400 -81.5664 201° Southwest 376 433 38,000  Climbing Jacksonville Center
07:22PM 32.6444 -81.6097 201° Southwest 371 427 38,000  Level Jacksonville Center
07:23PM 32.5406 -81.6581 201° Southwest 371 427 38,000  Level Jacksonville Center
07:24PM 32.4447 -81.6986 200° South 371 427 38,000  Level Jacksonville Center
07:25PM 32.3472 -81.7442 202° Southwest 371 427 38,000  Level Jacksonville Center
07:26PM 32.2492 -81.7725 194° South 371 427 38,000  Level Jacksonville Center
07:27PM 32.1533 -81.7933 190° South 381 438 38,000  Level Jacksonville Center
07:28PM 32.0389 -81.8217 192° South 387 445 38,000  Level Jacksonville Center
07:29PM 31.9325 -81.8447 190° South 392 451 38,000  Level Jacksonville Center
07:30PM 31.8389 -81.8656 191° South 392 451 38,000  Level Jacksonville Center
07:31PM 31.7261 -81.8886 190° South 386 444 38,000  Level Jacksonville Center
07:32PM 31.6303 -81.9117 192° South 386 444 38,000  Level Jacksonville Center
07:33PM 31.5136 -81.9372 191° South 391 450 38,000  Level Jacksonville Center
07:34PM 31.4094 -81.9628 192° South 391 450 38,000  Level Jacksonville Center
07:35PM 31.3031 -81.9833 189° South 391 450 38,000  Level Jacksonville Center
07:36PM 31.1967 -82.0086 191° South 391 450 38,000  Level Jacksonville Center
07:37PM 31.0883 -82.0314 190° South 391 450 38,000  Level Jacksonville Center
07:38PM 30.9800 -82.0567 191° South 391 450 38,000  Level Jacksonville Center
07:39PM 30.8756 -82.0794 191° South 391 450 38,000 -60 Level Jacksonville Center
07:40PM 30.7672 -82.1044 191° South 391 450 37,900  Descending Jacksonville Center
07:41PM 30.6631 -82.1294 192° South 391 450 38,000  Climbing Jacksonville Center
07:42PM 30.5547 -82.1519 190° South 391 450 38,000  Level Jacksonville Center
07:43PM 30.4608 -82.1672 188° South 386 444 38,000  Level Jacksonville Center
07:44PM 30.3564 -82.1897 191° South 386 444 38,000 -60 Level Jacksonville Center
07:45PM 30.2522 -82.2119 190° South 391 450 37,900 -540 Descending Jacksonville Center
07:46PM 30.1478 -82.2367 192° South 391 450 37,000 -960 Descending Jacksonville Center
07:47PM 30.0458 -82.2567 190° South 391 450 36,000 -1,020 Descending Jacksonville Center
07:48PM 29.9353 -82.2839 192° South 391 450 35,000 -1,320 Descending Jacksonville Center
07:49PM 29.8308 -82.3058 190° South 391 450 33,400 -2,400 Descending Jacksonville Center
07:50PM 29.7100 -82.3283 189° South 391 450 30,200 -3,000 Descending Jacksonville Center
07:51PM 29.5972 -82.3528 191° South 396 456 27,400 -2,460 Descending Jacksonville Center
07:52PM 29.4803 -82.3461 177° South 409 471 25,300 -1,980 Descending Jacksonville Center
07:53PM 29.3717 -82.3325 174° South 409 471 23,500 -1,800 Descending Jacksonville Center
07:54PM 29.2611 -82.3189 174° South 404 465 21,700 -1,800 Descending Jacksonville Center
07:55PM 29.1544 -82.3053 174° South 404 465 19,900 -1,800 Descending Jacksonville Center
07:56PM 29.0481 -82.2939 175° South 399 459 18,200 -1,800 Descending Jacksonville Center
07:57PM 28.9456 -82.2803 173° South 388 447 16,400 -1,680 Descending Jacksonville Center
07:58PM 28.8475 -82.2692 174° South 376 433 14,900 -1,560 Descending Jacksonville Center
08:00PM 28.7000 -82.2500 173° South 324 373 12,400 -1,440 Descending Tampa TRACON
08:01PM 28.6167 -82.2500 180° South 302 348 11,300 -720 Descending Tampa TRACON
08:02PM 28.5333 -82.2667 190° South 295 339 11,000 -180 Descending Tampa TRACON
08:03PM 28.4667 -82.3000 204° Southwest 293 337 11,000  Level Tampa TRACON
08:03PM 28.4000 -82.3167 192° South 292 336 11,000 -300 Level Tampa TRACON
08:04PM 28.3167 -82.3333 190° South 293 337 10,500 -660 Descending Tampa TRACON
08:05PM 28.2500 -82.3500 192° South 287 330 9,800 -600 Descending Tampa TRACON
08:06PM 28.1667 -82.3667 190° South 283 326 9,300 -960 Descending Tampa TRACON
08:07PM 28.0833 -82.3833 190° South 282 325 7,900 -1,500 Descending Tampa TRACON
08:09PM 28.0000 -82.4167 199° South 281 323 6,000 -1,500 Descending Tampa TRACON
08:10PM 27.9333 -82.4333 192° South 272 313 4,600 -1,440 Descending Tampa TRACON
08:11PM 27.8500 -82.4667 199° South 260 299 3,000 -1,140 Descending Tampa TRACON
08:12PM 27.8333 -82.5333 254° West 219 252 2,200 -720 Descending Tampa TRACON
08:13PM 27.8833 -82.5500 344° North 180 207 1,500 -720 Descending Tampa TRACON
08:13PM 27.9167 -82.5500 360° North 157 181 1,000 -720 Descending Tampa TRACON
08:14PM 27.9500 -82.5500 360° North 144 166 300 -720 Descending Tampa TRACON
08:16PM 27.9667 -82.5167 350° North  Level FlightAware Approximate
08:23PM 27.9755 -82.5332 350° North  Level Estimated